首页
METAR-TAF:

METAR-TAF

机场 :

維也納國際機場

維也納, 奥地利

纬度: 48-07N, 经度: 016-34E, 海拔: 183米

当前天气观测

该预报发布于14分钟前的14:20 UTC
风速22节,风向西
温度 14°C
湿度 51%
气压 1016 hPa
能见度10公里或以上
1500米以下无云,无积雨云

METAR: LOWW 231420Z 27022KT CAVOK 14/04 Q1016 NOSIG

时间: 16:34 (14:34 UTC)

预报

该预报发布于3小时和19分钟前的11:15 UTC
预报有效从23日的 12点(UTC)到 24日的 18点(UTC)
风速20节,风向西,有时为35节阵风
能见度10公里或以上
散云层高于4000英尺
多云层高于27000英尺
短暂存在
从 23日的 12点(UTC)到 24日的 02点(UTC)
风速25节,风向西,有时为40节阵风
少量云层高于4000英尺
阴天层高于7000英尺
小雨
几率 40%
从 24日的 02点(UTC)到 24日的 08点(UTC)
风速35节,风向西,有时为50节阵风
多云层高于4000英尺
短暂存在
从 24日的 08点(UTC)到 24日的 11点(UTC)
风速20节,风向西北,有时为35节阵风
散云层高于2000英尺
阴天层高于4000英尺
阵雨
成为
从 24日的 11点(UTC)到 24日的 13点(UTC)
风速15节,风向,有时为28节阵风
能见度10公里或以上
散云层高于5000英尺

TAF: LOWW 231115Z 2312/2418 28020G35KT 9999 SCT040 BKN270 TX15/2312Z TN09/2411Z TEMPO 2312/2402 27025G40KT -RA FEW040 OVC070 PROB40 2402/2408 28035G50KT BKN040 TEMPO 2408/2411 32020G35KT SHRA SCT020 OVC040 BECMG 2411/2413 35015G28KT 9999 SCT050

超过4000个机场的气象观测和天气预报(METAR&TAF报告)。

可查询的气象台以黄色和红色小点在地图上表示。

将鼠标移到小点上方,可查看气象台名称。

然后点击查看天气观测和预报。

如需切换地图:点击带黑十字的绿色按钮放大地图;点击带横线的绿色按钮缩小地图;或者点击绿色箭头查看邻近地区的地图。


METAR-TAF: